createdAt,value
2023-02-09T00:00:32.965Z,-10.57
2023-02-09T00:02:38.658Z,-10.69
2023-02-09T00:04:44.148Z,-10.76
2023-02-09T00:06:49.748Z,-10.73
2023-02-09T00:08:54.965Z,-10.69
2023-02-09T00:11:00.158Z,-10.64
2023-02-09T00:13:05.522Z,-10.51
2023-02-09T00:15:11.090Z,-10.62
2023-02-09T00:17:16.525Z,-10.65
2023-02-09T00:19:21.719Z,-10.67
2023-02-09T00:21:27.668Z,-10.79
2023-02-09T00:23:33.373Z,-10.87
2023-02-09T00:25:38.769Z,-10.99
2023-02-09T00:27:44.187Z,-11
2023-02-09T00:29:49.594Z,-10.93
2023-02-09T00:31:55.220Z,-10.84
2023-02-09T00:34:00.666Z,-10.88
2023-02-09T00:36:05.939Z,-10.9
2023-02-09T00:38:11.322Z,-10.98
2023-02-09T00:40:16.636Z,-11.05
2023-02-09T00:42:21.989Z,-11.17
2023-02-09T00:44:27.589Z,-11.19
2023-02-09T00:46:33.198Z,-11.18
2023-02-09T00:48:38.690Z,-11.03
2023-02-09T00:50:44.680Z,-10.85
2023-02-09T00:52:51.032Z,-10.75
2023-02-09T00:54:56.582Z,-10.86
2023-02-09T00:57:01.828Z,-11.03
2023-02-09T00:59:07.956Z,-11.15
2023-02-09T01:01:13.348Z,-11.25
2023-02-09T01:03:18.852Z,-11.23
2023-02-09T01:05:24.596Z,-11.2
2023-02-09T01:07:30.140Z,-11.12
2023-02-09T01:09:35.493Z,-11
2023-02-09T01:11:40.827Z,-10.81
2023-02-09T01:13:47.438Z,-10.89
2023-02-09T01:15:52.872Z,-11.06
2023-02-09T01:17:58.063Z,-11.16
2023-02-09T01:20:03.858Z,-11.27
2023-02-09T01:22:09.127Z,-11.37
2023-02-09T01:24:14.603Z,-11.46
2023-02-09T01:26:19.930Z,-11.43
2023-02-09T01:28:25.238Z,-11.47
2023-02-09T01:30:30.885Z,-11.53
2023-02-09T01:32:36.580Z,-11.61
2023-02-09T01:34:42.440Z,-11.65
2023-02-09T01:36:48.070Z,-11.8
2023-02-09T01:38:53.411Z,-11.84
2023-02-09T01:40:59.446Z,-11.88
2023-02-09T01:43:05.614Z,-11.86
2023-02-09T01:45:11.162Z,-11.89
2023-02-09T01:47:16.396Z,-11.88
2023-02-09T01:49:21.787Z,-11.89
2023-02-09T01:51:27.166Z,-11.97
2023-02-09T01:53:32.408Z,-12.07
2023-02-09T01:55:38.178Z,-12.03
2023-02-09T01:57:43.563Z,-12.09
2023-02-09T01:59:48.947Z,-12.14
2023-02-09T02:01:54.260Z,-12.06
2023-02-09T02:03:59.828Z,-12.02
2023-02-09T02:06:05.264Z,-11.98
2023-02-09T02:08:10.691Z,-12.03
2023-02-09T02:10:16.205Z,-11.91
2023-02-09T02:12:22.894Z,-11.92
2023-02-09T02:14:28.400Z,-11.79
2023-02-09T02:16:33.828Z,-11.7
2023-02-09T02:18:39.144Z,-11.72
2023-02-09T02:20:44.966Z,-11.73
2023-02-09T02:22:51.573Z,-11.85
2023-02-09T02:24:57.291Z,-11.89
2023-02-09T02:27:03.275Z,-11.99
2023-02-09T02:29:08.802Z,-12.11
2023-02-09T02:31:13.875Z,-12.09
2023-02-09T02:33:20.831Z,-11.98
2023-02-09T02:35:26.313Z,-11.89
2023-02-09T02:37:31.474Z,-12.01
2023-02-09T02:39:37.186Z,-12.08
2023-02-09T02:41:42.975Z,-12.09
2023-02-09T02:43:48.189Z,-12.05
2023-02-09T02:45:53.467Z,-11.97
2023-02-09T02:47:58.993Z,-11.81
2023-02-09T02:50:04.395Z,-11.72
2023-02-09T02:52:09.679Z,-11.72
2023-02-09T02:54:15.309Z,-11.84
2023-02-09T02:56:20.559Z,-11.96
2023-02-09T02:58:26.049Z,-12
2023-02-09T03:00:30.932Z,-12.08
2023-02-09T03:02:36.262Z,-11.85
2023-02-09T03:04:41.683Z,-11.83
2023-02-09T03:06:47.100Z,-11.77
2023-02-09T03:08:52.980Z,-11.71
2023-02-09T03:10:58.642Z,-11.69
2023-02-09T03:13:04.134Z,-11.64
2023-02-09T03:15:09.202Z,-11.5
2023-02-09T03:17:14.788Z,-11.42
2023-02-09T03:19:19.955Z,-11.3
2023-02-09T03:21:25.642Z,-11.22
2023-02-09T03:23:31.139Z,-11.09
2023-02-09T03:25:36.436Z,-10.94
2023-02-09T03:27:42.149Z,-10.86
2023-02-09T03:29:47.542Z,-10.75
2023-02-09T03:31:52.674Z,-10.57
2023-02-09T03:33:58.689Z,-10.49
2023-02-09T03:36:04.604Z,-10.49
2023-02-09T03:38:09.973Z,-10.4
2023-02-09T03:40:17.819Z,-10.13
2023-02-09T03:42:23.370Z,-9.91
2023-02-09T03:44:28.761Z,-9.76
2023-02-09T03:46:33.932Z,-9.49
2023-02-09T03:48:39.931Z,-9.57
2023-02-09T03:50:45.576Z,-9.57
2023-02-09T03:52:51.778Z,-9.7
2023-02-09T03:54:57.452Z,-9.78
2023-02-09T03:57:02.818Z,-9.82
2023-02-09T03:59:08.192Z,-9.7
2023-02-09T04:01:13.254Z,-9.63
2023-02-09T04:03:19.046Z,-9.49
2023-02-09T04:05:24.290Z,-9.37
2023-02-09T04:07:30.308Z,-9.38
2023-02-09T04:09:35.947Z,-9.43
2023-02-09T04:11:41.396Z,-9.55
2023-02-09T04:13:46.570Z,-9.66
2023-02-09T04:15:51.935Z,-9.73
2023-02-09T04:17:57.589Z,-9.83
2023-02-09T04:20:03.003Z,-9.8
2023-02-09T04:22:08.218Z,-9.78
2023-02-09T04:24:13.582Z,-9.88
2023-02-09T04:26:19.032Z,-9.96
2023-02-09T04:28:24.460Z,-10.04
2023-02-09T04:30:30.310Z,-10.09
2023-02-09T04:32:35.959Z,-10.17
2023-02-09T04:34:41.401Z,-10.19
2023-02-09T04:36:46.895Z,-10.15
2023-02-09T04:38:52.068Z,-10.12
2023-02-09T04:40:57.793Z,-10.09
2023-02-09T04:43:03.156Z,-10
2023-02-09T04:45:08.376Z,-9.89
2023-02-09T04:47:14.230Z,-9.85
2023-02-09T04:49:19.656Z,-9.81
2023-02-09T04:51:25.457Z,-9.79
2023-02-09T04:53:30.669Z,-9.78
2023-02-09T04:55:35.994Z,-9.69
2023-02-09T04:57:41.497Z,-9.62
2023-02-09T04:59:46.928Z,-9.6
2023-02-09T05:01:52.239Z,-9.48
2023-02-09T05:03:57.762Z,-9.36
2023-02-09T05:06:03.836Z,-9.36
2023-02-09T05:08:08.998Z,-9.33
2023-02-09T05:10:14.572Z,-9.31
2023-02-09T05:12:20.306Z,-9.31
2023-02-09T05:14:25.476Z,-9.31
2023-02-09T05:16:31.058Z,-9.24
2023-02-09T05:18:37.102Z,-9.19
2023-02-09T05:20:42.611Z,-9.22
2023-02-09T05:22:50.228Z,-9.24
2023-02-09T05:24:55.803Z,-9.21
2023-02-09T05:27:01.258Z,-9.14
2023-02-09T05:29:06.229Z,-9.12
2023-02-09T05:31:11.630Z,-9.11
2023-02-09T05:33:17.621Z,-9.16
2023-02-09T05:35:23.100Z,-9.19
2023-02-09T05:37:28.888Z,-9.24
2023-02-09T05:39:34.166Z,-9.28
2023-02-09T05:41:39.422Z,-9.32
2023-02-09T05:43:44.765Z,-9.44
2023-02-09T05:45:50.103Z,-9.58
2023-02-09T05:47:55.473Z,-9.67
2023-02-09T05:50:00.752Z,-9.74
2023-02-09T05:52:06.245Z,-9.85
2023-02-09T05:54:11.721Z,-9.85
2023-02-09T05:56:16.881Z,-9.98
2023-02-09T05:58:22.237Z,-10.03
2023-02-09T06:00:27.585Z,-10.11
2023-02-09T06:02:33.370Z,-10.18
2023-02-09T06:04:39.041Z,-10.3
2023-02-09T06:06:44.316Z,-10.38
2023-02-09T06:08:49.781Z,-10.43
2023-02-09T06:10:55.791Z,-10.42
2023-02-09T06:13:01.579Z,-10.49
2023-02-09T06:15:06.914Z,-10.55
2023-02-09T06:17:12.461Z,-10.59
2023-02-09T06:19:17.949Z,-10.63
2023-02-09T06:21:23.318Z,-10.73
2023-02-09T06:23:28.823Z,-10.73
2023-02-09T06:25:37.201Z,-10.78
2023-02-09T06:27:43.201Z,-10.78
2023-02-09T06:29:48.734Z,-10.76
2023-02-09T06:31:54.914Z,-10.78
2023-02-09T06:34:00.904Z,-10.8
2023-02-09T06:36:06.323Z,-10.73
2023-02-09T06:38:12.286Z,-10.67
2023-02-09T06:40:17.912Z,-10.68
2023-02-09T06:42:23.408Z,-10.68
2023-02-09T06:44:31.451Z,-10.61
2023-02-09T06:46:37.237Z,-10.58
2023-02-09T06:48:42.987Z,-10.47
2023-02-09T06:50:49.503Z,-10.38
2023-02-09T06:52:55.814Z,-10.31
2023-02-09T06:55:01.379Z,-10.24
2023-02-09T06:57:06.725Z,-10.16
2023-02-09T06:59:12.317Z,-9.97
2023-02-09T07:01:18.404Z,-9.94
2023-02-09T07:03:24.041Z,-9.82
2023-02-09T07:05:29.443Z,-9.71
2023-02-09T07:07:34.908Z,-9.62
2023-02-09T07:09:40.045Z,-9.63
2023-02-09T07:11:45.199Z,-9.6
2023-02-09T07:13:51.094Z,-9.64
2023-02-09T07:15:56.609Z,-9.63
2023-02-09T07:18:02.341Z,-9.63
2023-02-09T07:20:07.837Z,-9.61
2023-02-09T07:22:13.329Z,-9.54
2023-02-09T07:24:18.852Z,-9.52
2023-02-09T07:26:24.128Z,-9.54
2023-02-09T07:28:29.891Z,-9.54
2023-02-09T07:30:36.306Z,-9.45
2023-02-09T07:32:42.434Z,-9.38
2023-02-09T07:34:47.790Z,-9.28
2023-02-09T07:36:53.572Z,-9.13
2023-02-09T07:39:00.125Z,-9.04
2023-02-09T07:41:06.381Z,-8.95
2023-02-09T07:43:11.718Z,-8.9
2023-02-09T07:45:17.178Z,-8.78
2023-02-09T07:47:22.676Z,-8.7
2023-02-09T07:49:28.530Z,-8.62
2023-02-09T07:51:34.425Z,-8.54
2023-02-09T07:53:40.036Z,-8.46
2023-02-09T07:55:45.684Z,-8.41
2023-02-09T07:57:52.073Z,-8.36
2023-02-09T08:00:00.711Z,-8.26
2023-02-09T08:02:06.230Z,-8.17
2023-02-09T08:04:12.505Z,-8.13
2023-02-09T08:06:19.443Z,-8.02
2023-02-09T08:08:44.653Z,-7.91
2023-02-09T08:10:50.556Z,-7.69
2023-02-09T08:12:56.482Z,-7.48
2023-02-09T08:15:01.831Z,-7.46
2023-02-09T08:17:07.661Z,-7.36
2023-02-09T08:19:13.278Z,-7.33
2023-02-09T08:21:18.568Z,-7.19
2023-02-09T08:23:24.169Z,-7.22
2023-02-09T08:25:29.767Z,-7.17
2023-02-09T08:27:35.525Z,-7.14
2023-02-09T08:29:41.120Z,-7.09
2023-02-09T08:31:46.598Z,-6.96
2023-02-09T08:33:52.507Z,-6.84
2023-02-09T08:35:57.675Z,-6.79
2023-02-09T08:38:03.746Z,-6.7
2023-02-09T08:40:09.109Z,-6.64
2023-02-09T08:42:14.700Z,-6.45
2023-02-09T08:44:20.073Z,-6.34
2023-02-09T08:46:25.723Z,-6.25
2023-02-09T08:48:33.736Z,-6.19
2023-02-09T08:50:40.372Z,-6.13
2023-02-09T08:52:45.924Z,-6.06
2023-02-09T08:54:51.611Z,-5.93
2023-02-09T08:56:57.016Z,-5.83
2023-02-09T08:59:02.656Z,-5.79
2023-02-09T09:01:08.231Z,-5.69
2023-02-09T09:03:13.980Z,-5.49
2023-02-09T09:05:19.430Z,-5.38
2023-02-09T09:07:25.135Z,-5.25
2023-02-09T09:09:30.759Z,-5.19
2023-02-09T09:11:36.108Z,-5.08
2023-02-09T09:13:41.482Z,-4.99
2023-02-09T09:15:50.002Z,-4.83
2023-02-09T09:17:55.255Z,-4.68
2023-02-09T09:20:00.446Z,-4.58
2023-02-09T09:22:05.650Z,-4.43
2023-02-09T09:24:11.403Z,-4.28
2023-02-09T09:26:17.497Z,-4.18
2023-02-09T09:28:24.137Z,-4.18
2023-02-09T09:30:30.601Z,-4.07
2023-02-09T09:32:36.455Z,-3.9
2023-02-09T09:34:42.426Z,-3.72
2023-02-09T09:36:56.745Z,-3.52
2023-02-09T09:39:18.222Z,-2.7
2023-02-09T09:41:26.440Z,-1.77
2023-02-09T09:43:31.833Z,-1.3
2023-02-09T09:45:38.365Z,-0.02
2023-02-09T09:47:44.206Z,1.63
2023-02-09T09:49:49.645Z,0.93
2023-02-09T09:51:55.165Z,1.13
2023-02-09T09:54:00.596Z,1.49
2023-02-09T09:56:05.924Z,2.08
2023-02-09T09:58:13.506Z,2.84
2023-02-09T10:00:21.629Z,4.41
2023-02-09T10:02:27.517Z,5.51
2023-02-09T10:04:34.592Z,5.09
2023-02-09T10:06:42.896Z,4.96
2023-02-09T10:08:49.689Z,4.87
2023-02-09T10:10:56.000Z,5.97
2023-02-09T10:13:01.656Z,3.01
2023-02-09T10:15:07.247Z,3.84
2023-02-09T10:17:12.916Z,4.36
2023-02-09T10:19:18.788Z,4.75
2023-02-09T10:21:24.662Z,6.11
2023-02-09T10:23:31.695Z,7.66
2023-02-09T10:25:42.800Z,8.16
2023-02-09T10:27:49.505Z,6.57
2023-02-09T10:29:55.024Z,6.44
2023-02-09T10:32:00.430Z,7.72
2023-02-09T10:34:05.969Z,7.76
2023-02-09T10:36:11.948Z,4.77
2023-02-09T10:38:17.306Z,5.48
2023-02-09T10:40:22.449Z,6.49
2023-02-09T10:42:28.964Z,4.87
2023-02-09T10:44:34.344Z,5.31
2023-02-09T10:46:43.286Z,6.98
2023-02-09T10:48:48.982Z,4.71
2023-02-09T10:50:54.910Z,4.49
2023-02-09T10:53:00.938Z,3.14
2023-02-09T10:55:06.855Z,4.37
2023-02-09T10:57:12.264Z,5.98
2023-02-09T10:59:17.733Z,3.54
2023-02-09T11:01:23.320Z,3.19
2023-02-09T11:03:29.194Z,6.18
2023-02-09T11:05:34.850Z,3.42
2023-02-09T11:07:40.522Z,2.81
2023-02-09T11:09:46.195Z,2.69
2023-02-09T11:11:52.991Z,1.94
2023-02-09T11:13:59.033Z,1.41
2023-02-09T11:16:05.154Z,0.8
2023-02-09T11:18:10.766Z,1.03
2023-02-09T11:20:16.030Z,0.91
2023-02-09T11:22:22.010Z,1.13
2023-02-09T11:24:33.897Z,1.09
2023-02-09T11:26:39.112Z,2.24
2023-02-09T11:28:46.414Z,1.85
2023-02-09T11:30:55.700Z,2.2
2023-02-09T11:33:02.290Z,2.35
2023-02-09T11:35:07.930Z,3.37
2023-02-09T11:37:44.239Z,4.73
2023-02-09T11:39:51.407Z,5.03
2023-02-09T11:41:57.006Z,5.06
2023-02-09T11:44:03.011Z,5.7
2023-02-09T11:46:08.426Z,6.58
2023-02-09T11:48:14.040Z,5.15
2023-02-09T11:50:19.822Z,5.16
2023-02-09T11:52:25.792Z,4.47
2023-02-09T11:54:31.246Z,5.76
2023-02-09T11:56:41.717Z,5.13
2023-02-09T11:58:47.838Z,3.37
2023-02-09T12:01:01.782Z,3.52
2023-02-09T12:03:22.122Z,4.52
2023-02-09T12:05:27.764Z,4.12
2023-02-09T12:07:33.957Z,4
2023-02-09T12:09:39.675Z,4.69
2023-02-09T12:11:45.087Z,4.71
2023-02-09T12:13:50.582Z,4.18
2023-02-09T12:15:55.985Z,4.34
2023-02-09T12:18:01.585Z,4.39
2023-02-09T12:20:06.981Z,3.56
2023-02-09T12:22:12.923Z,2.7
2023-02-09T12:24:20.017Z,2.36
2023-02-09T12:26:25.612Z,2.3
2023-02-09T12:28:31.437Z,2.16
2023-02-09T12:30:37.446Z,1.94
2023-02-09T12:32:42.873Z,1.85
2023-02-09T12:34:48.741Z,2.06
2023-02-09T12:36:56.186Z,1.99
2023-02-09T12:39:04.821Z,1.89
2023-02-09T12:41:11.638Z,1.81
2023-02-09T12:43:17.529Z,1.7
2023-02-09T12:45:25.323Z,1.76
2023-02-09T12:47:31.430Z,1.77
2023-02-09T12:49:36.859Z,1.83
2023-02-09T12:51:43.715Z,1.89
2023-02-09T12:53:50.281Z,1.97
2023-02-09T12:55:56.626Z,2.08
2023-02-09T12:58:01.933Z,2.16
2023-02-09T13:00:07.555Z,2.14
2023-02-09T13:02:13.557Z,2.16
2023-02-09T13:04:18.900Z,2.19
2023-02-09T13:06:25.286Z,2.28
2023-02-09T13:08:32.369Z,2.28
2023-02-09T13:10:37.610Z,2.16
2023-02-09T13:12:43.143Z,2.2
2023-02-09T13:14:49.105Z,2.16
2023-02-09T13:16:54.826Z,2.22
2023-02-09T13:19:00.813Z,2.27
2023-02-09T13:21:06.441Z,2.28
2023-02-09T13:23:12.071Z,2.27
2023-02-09T13:25:17.720Z,2.3
2023-02-09T13:27:22.913Z,2.4
2023-02-09T13:29:28.300Z,2.32
2023-02-09T13:31:33.888Z,2.29
2023-02-09T13:33:39.418Z,2.38
2023-02-09T13:35:45.066Z,2.44
2023-02-09T13:37:51.605Z,2.52
2023-02-09T13:39:57.468Z,2.42
2023-02-09T13:42:03.756Z,2.41
2023-02-09T13:44:14.391Z,2.55
2023-02-09T13:46:20.403Z,2.39
2023-02-09T13:48:26.555Z,2.33
2023-02-09T13:50:33.116Z,2.4
2023-02-09T13:52:39.313Z,2.53
2023-02-09T13:54:44.659Z,2.6
2023-02-09T13:56:51.279Z,2.44
2023-02-09T13:58:57.351Z,2.49
2023-02-09T14:01:03.469Z,2.39
2023-02-09T14:03:09.172Z,2.32
2023-02-09T14:05:15.213Z,2.36
2023-02-09T14:07:20.787Z,2.25
2023-02-09T14:09:26.783Z,2.17
2023-02-09T14:11:41.750Z,2.2
2023-02-09T14:13:47.770Z,2.17
2023-02-09T14:15:53.238Z,2.2
2023-02-09T14:17:58.658Z,2.17
2023-02-09T14:20:04.012Z,2.16
2023-02-09T14:22:09.409Z,2.13
2023-02-09T14:24:14.802Z,2.13
2023-02-09T14:26:20.173Z,2.09
2023-02-09T14:28:25.808Z,2.07
2023-02-09T14:30:31.483Z,1.98
2023-02-09T14:32:37.053Z,1.96
2023-02-09T14:34:44.782Z,1.84
2023-02-09T14:36:50.106Z,1.75
2023-02-09T14:38:55.689Z,1.7
2023-02-09T14:41:01.039Z,1.61
2023-02-09T14:43:06.338Z,1.65
2023-02-09T14:45:11.843Z,1.64
2023-02-09T14:47:17.598Z,1.58
2023-02-09T14:49:23.533Z,1.46
2023-02-09T14:51:28.943Z,1.35
2023-02-09T14:53:34.130Z,1.27
2023-02-09T14:55:40.508Z,1.18
2023-02-09T14:57:46.789Z,1.09
2023-02-09T14:59:52.257Z,0.99
2023-02-09T15:01:57.688Z,0.92
2023-02-09T15:04:03.665Z,0.89
2023-02-09T15:06:09.133Z,0.85
2023-02-09T15:08:14.653Z,0.78
2023-02-09T15:12:43.268Z,0.38
2023-02-09T15:14:49.016Z,0.25
2023-02-09T15:16:54.790Z,0.08
2023-02-09T15:19:00.366Z,-0.16
2023-02-09T15:21:05.896Z,-0.42
2023-02-09T15:23:11.947Z,-0.68
2023-02-09T15:25:18.355Z,-0.94
2023-02-09T15:27:23.835Z,-1.2
2023-02-09T15:29:33.258Z,-1.41
2023-02-09T15:31:39.601Z,-1.56
2023-02-09T15:33:45.368Z,-1.71
2023-02-09T15:35:50.896Z,-1.8
2023-02-09T15:37:56.995Z,-1.9
2023-02-09T15:40:02.936Z,-2.03
2023-02-09T15:42:08.787Z,-2.18
2023-02-09T15:44:15.149Z,-2.35
2023-02-09T15:46:20.926Z,-2.41
2023-02-09T15:48:27.089Z,-2.52
2023-02-09T15:50:32.965Z,-2.58
2023-02-09T15:52:38.314Z,-2.6
2023-02-09T15:54:44.507Z,-2.62
2023-02-09T15:59:00.507Z,-2.85
2023-02-09T16:01:07.482Z,-2.88
2023-02-09T16:03:15.124Z,-2.93
2023-02-09T16:05:21.402Z,-3
2023-02-09T16:07:27.189Z,-2.98
2023-02-09T16:09:33.275Z,-3.02
2023-02-09T16:11:40.309Z,-2.86
2023-02-09T16:13:46.287Z,-2.9
2023-02-09T16:16:00.272Z,-2.75
2023-02-09T16:20:43.308Z,-2.17
2023-02-09T16:22:51.854Z,-1.77
2023-02-09T16:24:58.066Z,-1.85
2023-02-09T16:27:05.299Z,-1.92
2023-02-09T16:29:11.177Z,-2.1
2023-02-09T16:31:19.322Z,-2.18
2023-02-09T16:33:28.962Z,-2.29
2023-02-09T16:35:36.340Z,-2.16
2023-02-09T16:37:45.053Z,-2.1
2023-02-09T16:39:52.687Z,-1.98
2023-02-09T16:41:58.446Z,-1.78
2023-02-09T16:44:05.003Z,-1.98
2023-02-09T16:46:18.549Z,-1.87
2023-02-09T16:48:25.460Z,-1.85
2023-02-09T16:50:32.807Z,-1.62
2023-02-09T16:52:40.813Z,-1.65
2023-02-09T16:54:49.702Z,-1.92
2023-02-09T16:56:58.781Z,-1.77
2023-02-09T16:59:08.825Z,-1.56
2023-02-09T17:01:18.179Z,-1.25
2023-02-09T17:03:26.535Z,-1.15
2023-02-09T17:05:33.670Z,-1.22
2023-02-09T17:07:54.273Z,-1.14
2023-02-09T17:10:01.595Z,-1.13
2023-02-09T17:12:07.888Z,-1.17
2023-02-09T17:14:14.039Z,-1.12
2023-02-09T17:16:20.696Z,-1
2023-02-09T17:18:29.696Z,-0.91
2023-02-09T17:20:35.898Z,-0.85
2023-02-09T17:22:43.112Z,-1.09
2023-02-09T17:24:51.441Z,-1.02
2023-02-09T17:26:58.916Z,-1.02
2023-02-09T17:29:07.031Z,-1.16
2023-02-09T17:31:15.021Z,-1.18
2023-02-09T17:33:22.448Z,-1.36
2023-02-09T17:35:53.291Z,-1.37
2023-02-09T17:38:37.009Z,-1.54
2023-02-09T17:40:43.245Z,-1.8
2023-02-09T17:42:50.709Z,-1.85
2023-02-09T17:44:59.396Z,-2.07
2023-02-09T17:47:07.959Z,-2.22
2023-02-09T17:49:18.051Z,-2.32
2023-02-09T17:51:26.376Z,-1.98
2023-02-09T17:53:33.905Z,-1.86
2023-02-09T17:55:41.218Z,-1.91
2023-02-09T17:57:49.767Z,-2.05
2023-02-09T17:59:56.265Z,-2
2023-02-09T18:02:03.258Z,-2.15
2023-02-09T18:04:11.104Z,-2.17
2023-02-09T18:06:18.386Z,-2.01
2023-02-09T18:08:26.499Z,-2.04
2023-02-09T18:10:34.112Z,-2.14
2023-02-09T18:12:43.520Z,-2.29
2023-02-09T18:14:50.909Z,-2.14
2023-02-09T18:16:59.435Z,-2.07
2023-02-09T18:19:08.341Z,-1.9
2023-02-09T18:21:15.590Z,-2.08
2023-02-09T18:23:24.164Z,-2.16
2023-02-09T18:25:34.594Z,-1.99
2023-02-09T18:27:44.983Z,-2.05
2023-02-09T18:29:51.637Z,-2.13
2023-02-09T18:32:01.201Z,-2.08
2023-02-09T18:34:16.462Z,-2.12
2023-02-09T18:36:24.003Z,-2.06
2023-02-09T18:38:32.948Z,-2.28
2023-02-09T18:40:43.474Z,-2.37
2023-02-09T18:42:52.503Z,-2.18
2023-02-09T18:45:11.935Z,-2.16
2023-02-09T18:47:20.211Z,-2.18
2023-02-09T18:49:39.700Z,-2.36
2023-02-09T18:51:51.238Z,-2.39
2023-02-09T18:53:59.669Z,-2.35
2023-02-09T18:56:09.021Z,-2.44
2023-02-09T18:58:17.683Z,-2.45
2023-02-09T19:00:26.269Z,-2.48
2023-02-09T19:02:34.836Z,-2.36
2023-02-09T19:04:45.548Z,-2.32
2023-02-09T19:06:56.542Z,-2.31
2023-02-09T19:09:05.417Z,-2.37
2023-02-09T19:11:15.066Z,-2.47
2023-02-09T19:13:22.278Z,-2.44
2023-02-09T19:15:31.094Z,-2.48
2023-02-09T19:17:39.840Z,-2.54
2023-02-09T19:19:49.840Z,-2.61
2023-02-09T19:22:01.896Z,-2.62
2023-02-09T19:24:12.619Z,-2.48
2023-02-09T19:26:23.449Z,-2.51
2023-02-09T19:28:33.490Z,-2.64
2023-02-09T19:30:45.320Z,-2.67
2023-02-09T19:32:55.763Z,-2.59
2023-02-09T19:35:17.132Z,-2.7
2023-02-09T19:37:30.901Z,-2.56
2023-02-09T19:39:40.627Z,-2.49
2023-02-09T19:41:59.373Z,-2.51
2023-02-09T19:44:13.333Z,-2.59
2023-02-09T19:46:24.170Z,-2.53
2023-02-09T19:48:36.174Z,-2.5
2023-02-09T19:50:45.314Z,-2.51
2023-02-09T19:52:53.959Z,-2.59
2023-02-09T19:55:03.005Z,-2.61
2023-02-09T19:57:10.551Z,-2.65
2023-02-09T19:59:18.673Z,-2.74
2023-02-09T20:01:31.060Z,-2.75
2023-02-09T20:03:41.288Z,-2.83
2023-02-09T20:05:49.561Z,-2.89
2023-02-09T20:07:57.933Z,-2.78
2023-02-09T20:10:06.441Z,-2.72
2023-02-09T20:12:15.426Z,-2.76
2023-02-09T20:14:28.593Z,-2.67
2023-02-09T20:16:42.066Z,-2.72
2023-02-09T20:18:49.521Z,-2.78
2023-02-09T20:20:59.591Z,-2.89
2023-02-09T20:23:16.646Z,-2.86
2023-02-09T20:25:24.570Z,-3
2023-02-09T20:27:36.423Z,-2.94
2023-02-09T20:29:47.390Z,-2.86
2023-02-09T20:31:55.499Z,-2.74
2023-02-09T20:36:18.055Z,-2.68
2023-02-09T20:38:29.130Z,-2.71
2023-02-09T20:40:40.337Z,-2.76
2023-02-09T20:42:51.776Z,-2.77
2023-02-09T20:45:09.048Z,-2.83
2023-02-09T20:47:17.669Z,-2.91
2023-02-09T20:49:33.163Z,-2.88
2023-02-09T20:51:41.004Z,-2.82
2023-02-09T20:53:52.470Z,-2.75
2023-02-09T20:56:00.695Z,-2.79
2023-02-09T20:58:12.129Z,-2.74
2023-02-09T21:00:19.229Z,-2.8
2023-02-09T21:02:28.100Z,-2.73
2023-02-09T21:04:36.854Z,-2.74
2023-02-09T21:06:50.047Z,-2.77
2023-02-09T21:09:01.461Z,-2.86
2023-02-09T21:11:09.890Z,-2.92
2023-02-09T21:13:19.041Z,-2.95
2023-02-09T21:15:26.584Z,-2.98
2023-02-09T21:17:33.719Z,-2.91
2023-02-09T21:19:41.426Z,-2.95
2023-02-09T21:21:48.083Z,-2.81
2023-02-09T21:23:55.325Z,-2.88
2023-02-09T21:26:02.410Z,-2.71
2023-02-09T21:28:09.502Z,-2.66
2023-02-09T21:30:16.069Z,-2.77
2023-02-09T21:32:23.279Z,-2.78
2023-02-09T21:34:29.598Z,-2.83
2023-02-09T21:36:36.685Z,-2.77
2023-02-09T21:38:43.772Z,-2.73
2023-02-09T21:40:50.462Z,-2.62
2023-02-09T21:42:58.073Z,-2.45
2023-02-09T21:45:03.932Z,-2.43
2023-02-09T21:47:12.742Z,-2.41
2023-02-09T21:49:21.595Z,-2.35
2023-02-09T21:51:27.283Z,-2.11
2023-02-09T21:53:32.721Z,-2.12
2023-02-09T21:55:38.803Z,-2.03
2023-02-09T21:57:44.739Z,-2.03
2023-02-09T21:59:50.588Z,-2.02
2023-02-09T22:01:56.276Z,-2.01
2023-02-09T22:04:01.689Z,-1.89
2023-02-09T22:06:07.496Z,-1.9
2023-02-09T22:08:12.947Z,-1.95
2023-02-09T22:10:18.490Z,-1.9
2023-02-09T22:12:24.422Z,-1.86
2023-02-09T22:14:30.086Z,-1.73
2023-02-09T22:16:35.700Z,-1.75
2023-02-09T22:18:41.421Z,-1.88
2023-02-09T22:20:47.242Z,-2.01
2023-02-09T22:22:53.408Z,-1.93
2023-02-09T22:24:58.941Z,-1.95
2023-02-09T22:27:04.346Z,-1.92
2023-02-09T22:29:12.745Z,-1.89
2023-02-09T22:31:18.585Z,-1.89
2023-02-09T22:33:24.532Z,-1.83
2023-02-09T22:35:30.116Z,-1.81
2023-02-09T22:37:35.241Z,-1.9
2023-02-09T22:39:40.508Z,-1.92
2023-02-09T22:41:45.737Z,-1.93
2023-02-09T22:43:50.868Z,-1.87
2023-02-09T22:45:56.324Z,-1.95
2023-02-09T22:48:01.749Z,-1.99
2023-02-09T22:50:07.169Z,-1.94
2023-02-09T22:52:12.419Z,-1.92
2023-02-09T22:54:17.660Z,-2
2023-02-09T22:56:23.321Z,-2.04
2023-02-09T22:58:28.694Z,-2.01
2023-02-09T23:00:34.606Z,-1.97
2023-02-09T23:02:40.240Z,-2
2023-02-09T23:04:45.760Z,-1.97
2023-02-09T23:06:51.483Z,-1.98
2023-02-09T23:08:57.078Z,-1.99
2023-02-09T23:11:03.115Z,-2.01
2023-02-09T23:13:08.639Z,-2
2023-02-09T23:15:14.272Z,-2.03
2023-02-09T23:17:20.130Z,-2.06
2023-02-09T23:19:25.785Z,-1.95
2023-02-09T23:21:31.223Z,-2.01
2023-02-09T23:23:36.555Z,-2.1
2023-02-09T23:25:41.933Z,-2.14
2023-02-09T23:27:47.678Z,-2.14
2023-02-09T23:29:53.090Z,-2.09
2023-02-09T23:31:59.178Z,-2.24
2023-02-09T23:34:04.784Z,-2.17
2023-02-09T23:36:10.232Z,-2.1
2023-02-09T23:38:15.688Z,-2.06
2023-02-09T23:40:21.111Z,-2.18
2023-02-09T23:42:26.606Z,-2.26
2023-02-09T23:44:31.909Z,-2.3
2023-02-09T23:46:37.476Z,-2.3
2023-02-09T23:48:42.924Z,-2.22
2023-02-09T23:50:48.439Z,-2.24
2023-02-09T23:52:53.931Z,-2.24
2023-02-09T23:55:02.582Z,-2.33
2023-02-09T23:57:07.917Z,-2.36
2023-02-09T23:59:13.189Z,-2.27
